createdAt,value
2018-12-01T00:01:10.136Z,95760.53
2018-12-01T00:03:40.317Z,95757.33
2018-12-01T00:06:10.929Z,95752.50
2018-12-01T00:08:41.332Z,95745.88
2018-12-01T00:11:11.420Z,95754.13
2018-12-01T00:13:41.777Z,95755.84
2018-12-01T00:16:12.237Z,95756.36
2018-12-01T00:18:42.796Z,95758.59
2018-12-01T00:21:13.230Z,95755.74
2018-12-01T00:23:43.581Z,95756.55
2018-12-01T00:26:13.966Z,95756.08
2018-12-01T00:28:44.351Z,95765.60
2018-12-01T00:31:14.467Z,95758.47
2018-12-01T00:33:45.028Z,95759.41
2018-12-01T00:36:15.549Z,95754.77
2018-12-01T00:38:46.121Z,95749.05
2018-12-01T00:41:16.486Z,95754.27
2018-12-01T00:43:46.900Z,95760.12
2018-12-01T00:46:17.128Z,95747.16
2018-12-01T00:48:51.241Z,95756.02
2018-12-01T00:51:21.516Z,95753.50
2018-12-01T00:53:51.367Z,95749.96
2018-12-01T00:56:21.168Z,95744.56
2018-12-01T00:58:51.971Z,95743.67
2018-12-01T01:01:21.795Z,95732.91
2018-12-01T01:03:52.187Z,95738.73
2018-12-01T01:06:21.933Z,95734.34
2018-12-01T01:08:52.038Z,95739.13
2018-12-01T01:11:21.853Z,95737.33
2018-12-01T01:13:51.718Z,95735.94
2018-12-01T01:16:21.637Z,95733.33
2018-12-01T01:18:51.555Z,95733.11
2018-12-01T01:21:21.907Z,95733.33
2018-12-01T01:23:51.664Z,95728.60
2018-12-01T01:26:21.517Z,95735.94
2018-12-01T01:28:51.361Z,95739.94
2018-12-01T01:31:21.524Z,95734.42
2018-12-01T01:33:51.938Z,95729.09
2018-12-01T01:36:22.108Z,95723.16
2018-12-01T01:38:52.685Z,95726.80
2018-12-01T01:41:22.981Z,95729.59
2018-12-01T01:43:54.141Z,95731.20
2018-12-01T01:46:24.471Z,95723.98
2018-12-01T01:48:54.767Z,95720.67
2018-12-01T01:51:24.622Z,95722.19
2018-12-01T01:53:54.866Z,95718.67
2018-12-01T01:56:24.684Z,95733.02
2018-12-01T01:58:55.463Z,95735.02
2018-12-01T02:01:25.509Z,95737.74
2018-12-01T02:03:55.272Z,95735.12
2018-12-01T02:06:25.107Z,95734.63
2018-12-01T02:08:56.074Z,95741.55
2018-12-01T02:11:25.988Z,95745.97
2018-12-01T02:13:55.807Z,95745.69
2018-12-01T02:16:25.814Z,95743.36
2018-12-01T02:18:57.002Z,95738.34
2018-12-01T02:21:27.985Z,95737.23
2018-12-01T02:23:58.492Z,95725.59
2018-12-01T02:26:28.737Z,95724.69
2018-12-01T02:29:00.213Z,95717.86
2018-12-01T02:31:30.676Z,95724.67
2018-12-01T02:34:00.973Z,95718.75
2018-12-01T02:36:31.261Z,95713.33
2018-12-01T02:39:05.358Z,95706.82
2018-12-01T02:41:35.584Z,95694.44
2018-12-01T02:44:16.617Z,95696.42
2018-12-01T02:47:23.786Z,95688.03
2018-12-01T02:49:54.317Z,95681.32
2018-12-01T02:52:24.590Z,95676.19
2018-12-01T02:54:54.856Z,95678.20
2018-12-01T02:57:25.444Z,95679.76
2018-12-01T02:59:55.755Z,95683.67
2018-12-01T03:02:26.345Z,95701.71
2018-12-01T03:04:56.781Z,95702.41
2018-12-01T03:07:27.472Z,95716.75
2018-12-01T03:09:57.652Z,95714.86
2018-12-01T03:12:27.982Z,95711.36
2018-12-01T03:14:58.624Z,95713.14
2018-12-01T03:17:29.423Z,95725.83
2018-12-01T03:20:00.088Z,95726.64
2018-12-01T03:22:30.513Z,95722.88
2018-12-01T03:25:00.990Z,95717.21
2018-12-01T03:27:35.701Z,95721.27
2018-12-01T03:30:08.948Z,95722.67
2018-12-01T03:32:39.807Z,95731.98
2018-12-01T03:35:14.592Z,95734.13
2018-12-01T03:37:46.889Z,95742.13
2018-12-01T03:40:17.871Z,95742.55
2018-12-01T03:42:48.015Z,95743.22
2018-12-01T03:45:22.814Z,95507.66
2018-12-01T03:47:53.676Z,95741.39
2018-12-01T03:50:25.027Z,95746.25
2018-12-01T03:52:56.443Z,95747.84
2018-12-01T03:55:33.634Z,95746.75
2018-12-01T03:58:05.495Z,95742.02
2018-12-01T04:00:36.539Z,95737.12
2018-12-01T04:03:07.952Z,95734.94
2018-12-01T04:05:38.374Z,95730.57
2018-12-01T04:08:09.590Z,95733.41
2018-12-01T04:10:39.952Z,95735.31
2018-12-01T04:13:10.256Z,95738.84
2018-12-01T04:15:40.308Z,95738.01
2018-12-01T04:18:11.137Z,95737.20
2018-12-01T04:20:41.572Z,95744.77
2018-12-01T04:23:12.069Z,95736.62
2018-12-01T04:25:42.468Z,95728.40
2018-12-01T04:28:12.676Z,95725.99
2018-12-01T04:30:42.867Z,95719.27
2018-12-01T04:33:13.268Z,95728.90
2018-12-01T04:35:43.553Z,95731.09
2018-12-01T04:38:15.144Z,95735.23
2018-12-01T04:40:45.755Z,95735.73
2018-12-01T04:43:16.343Z,95738.05
2018-12-01T04:45:46.559Z,95740.97
2018-12-01T04:48:20.024Z,95738.05
2018-12-01T04:50:50.416Z,95736.75
2018-12-01T04:53:20.824Z,95737.15
2018-12-01T04:55:51.638Z,95741.67
2018-12-01T04:58:22.367Z,95761.20
2018-12-01T05:00:52.620Z,95768.98
2018-12-01T05:03:23.430Z,95776.24
2018-12-01T05:05:53.879Z,95775.22
2018-12-01T05:08:24.482Z,95773.23
2018-12-01T05:10:54.953Z,95778.06
2018-12-01T05:13:25.229Z,95782.00
2018-12-01T05:15:55.669Z,95779.91
2018-12-01T05:18:26.792Z,95788.20
2018-12-01T05:20:57.547Z,95787.74
2018-12-01T05:23:28.267Z,95789.70
2018-12-01T05:25:58.910Z,95789.27
2018-12-01T05:28:29.716Z,95783.56
2018-12-01T05:30:59.869Z,95785.17
2018-12-01T05:33:30.132Z,95786.30
2018-12-01T05:36:00.318Z,95781.55
2018-12-01T05:38:31.621Z,95775.33
2018-12-01T05:41:02.138Z,95782.95
2018-12-01T05:43:32.323Z,95777.69
2018-12-01T05:46:02.548Z,95776.55
2018-12-01T05:48:33.975Z,95784.49
2018-12-01T05:51:04.316Z,95786.39
2018-12-01T05:53:34.589Z,95783.59
2018-12-01T05:56:05.093Z,95798.52
2018-12-01T05:58:35.800Z,95798.63
2018-12-01T06:01:06.953Z,95804.22
2018-12-01T06:03:37.766Z,95807.09
2018-12-01T06:06:08.160Z,95807.86
2018-12-01T06:08:38.611Z,95811.80
2018-12-01T06:11:09.124Z,95814.17
2018-12-01T06:13:39.561Z,95818.09
2018-12-01T06:16:09.952Z,95828.86
2018-12-01T06:18:40.936Z,95833.38
2018-12-01T06:21:11.254Z,95839.19
2018-12-01T06:23:41.909Z,95834.95
2018-12-01T06:26:12.319Z,95837.31
2018-12-01T06:28:43.372Z,95834.81
2018-12-01T06:31:13.767Z,95836.35
2018-12-01T06:33:44.282Z,95840.67
2018-12-01T06:36:14.537Z,95836.71
2018-12-01T06:38:45.269Z,95837.95
2018-12-01T06:41:15.705Z,95832.77
2018-12-01T06:43:46.014Z,95840.80
2018-12-01T06:46:16.139Z,95839.10
2018-12-01T06:48:46.622Z,95844.51
2018-12-01T06:51:17.393Z,95840.52
2018-12-01T06:53:47.783Z,95839.13
2018-12-01T06:56:18.364Z,95832.80
2018-12-01T06:58:48.921Z,95838.38
2018-12-01T07:01:19.596Z,95835.02
2018-12-01T07:03:50.257Z,95834.41
2018-12-01T07:06:20.693Z,95837.58
2018-12-01T07:08:51.670Z,95835.42
2018-12-01T07:11:21.917Z,95835.91
2018-12-01T07:13:52.392Z,95830.84
2018-12-01T07:16:22.764Z,95840.67
2018-12-01T07:19:19.769Z,95834.35
2018-12-01T07:21:50.072Z,95836.39
2018-12-01T07:24:20.836Z,95831.52
2018-12-01T07:26:50.625Z,95830.02
2018-12-01T07:29:20.548Z,95832.25
2018-12-01T07:31:50.303Z,95835.77
2018-12-01T07:34:20.060Z,95837.09
2018-12-01T07:36:49.994Z,95837.47
2018-12-01T07:39:19.780Z,95840.39
2018-12-01T07:41:49.490Z,95840.55
2018-12-01T07:44:20.531Z,95842.95
2018-12-01T07:46:51.432Z,95841.49
2018-12-01T07:49:21.186Z,95830.49
2018-12-01T07:51:50.956Z,95838.92
2018-12-01T07:54:20.805Z,95835.66
2018-12-01T07:56:50.624Z,95838.03
2018-12-01T07:59:20.572Z,95832.61
2018-12-01T08:01:50.353Z,95836.66
2018-12-01T08:04:20.320Z,95837.09
2018-12-01T08:06:50.032Z,95841.56
2018-12-01T08:09:19.719Z,95846.34
2018-12-01T08:11:49.440Z,95843.17
2018-12-01T08:14:19.310Z,95844.58
2018-12-01T08:16:49.146Z,95845.14
2018-12-01T08:19:19.004Z,95845.09
2018-12-01T08:21:48.871Z,95849.22
2018-12-01T08:24:18.979Z,95846.45
2018-12-01T08:26:48.853Z,95846.44
2018-12-01T08:29:18.681Z,95841.38
2018-12-01T08:31:48.553Z,95839.44
2018-12-01T08:34:18.449Z,95838.92
2018-12-01T08:36:48.410Z,95838.87
2018-12-01T08:39:18.265Z,95840.77
2018-12-01T08:41:48.937Z,95844.38
2018-12-01T08:44:18.755Z,95840.73
2018-12-01T08:46:49.270Z,95847.94
2018-12-01T08:49:19.065Z,95843.42
2018-12-01T08:51:48.912Z,95843.95
2018-12-01T08:54:18.937Z,95839.87
2018-12-01T08:56:49.268Z,95838.56
2018-12-01T08:59:19.866Z,95834.67
2018-12-01T09:01:50.249Z,95824.04
2018-12-01T09:04:20.748Z,95823.08
2018-12-01T09:06:51.644Z,95586.00
2018-12-01T09:09:22.212Z,95813.73
2018-12-01T09:11:52.029Z,95810.05
2018-12-01T09:14:21.897Z,95799.83
2018-12-01T09:16:52.895Z,95802.42
2018-12-01T09:19:22.620Z,95791.70
2018-12-01T09:21:52.547Z,95799.13
2018-12-01T09:24:22.509Z,95799.23
2018-12-01T09:26:53.111Z,95798.23
2018-12-01T09:29:23.006Z,95794.86
2018-12-01T09:31:52.955Z,95793.46
2018-12-01T09:34:22.837Z,95795.16
2018-12-01T09:36:52.680Z,95789.88
2018-12-01T09:39:22.476Z,95780.33
2018-12-01T09:41:52.306Z,95780.56
2018-12-01T09:44:22.061Z,95787.53
2018-12-01T09:46:52.021Z,95785.93
2018-12-01T09:49:21.989Z,95778.59
2018-12-01T09:51:51.789Z,95778.15
2018-12-01T09:54:21.568Z,95780.33
2018-12-01T09:56:51.467Z,95776.64
2018-12-01T09:59:21.298Z,95775.22
2018-12-01T10:01:51.138Z,95783.38
2018-12-01T10:04:21.057Z,95781.24
2018-12-01T10:06:50.974Z,95774.30
2018-12-01T10:09:20.930Z,95769.40
2018-12-01T10:11:50.760Z,95761.87
2018-12-01T10:14:20.501Z,95760.23
2018-12-01T10:16:50.525Z,95762.76
2018-12-01T10:19:20.489Z,95759.31
2018-12-01T10:21:50.324Z,95752.49
2018-12-01T10:24:20.108Z,95756.99
2018-12-01T10:26:50.034Z,95760.31
2018-12-01T10:29:20.005Z,95764.33
2018-12-01T10:31:49.884Z,95756.53
2018-12-01T10:34:19.591Z,95747.27
2018-12-01T10:36:49.349Z,95734.78
2018-12-01T10:39:19.403Z,95729.02
2018-12-01T10:41:49.234Z,95728.53
2018-12-01T10:44:19.053Z,95720.34
2018-12-01T10:46:48.777Z,95717.55
2018-12-01T10:49:18.654Z,95718.70
2018-12-01T10:51:48.508Z,95719.52
2018-12-01T10:54:18.309Z,95727.84
2018-12-01T10:56:48.011Z,95726.33
2018-12-01T10:59:17.986Z,95731.39
2018-12-01T11:01:52.976Z,95725.86
2018-12-01T11:04:27.766Z,95724.37
2018-12-01T11:06:57.877Z,95721.30
2018-12-01T11:09:28.084Z,95717.87
2018-12-01T11:11:57.879Z,95719.34
2018-12-01T11:14:27.739Z,95720.41
2018-12-01T11:16:57.789Z,95710.92
2018-12-01T11:19:27.711Z,95706.48
2018-12-01T11:21:57.528Z,95706.41
2018-12-01T11:24:27.320Z,95708.09
2018-12-01T11:26:57.190Z,95702.28
2018-12-01T11:29:27.151Z,95701.20
2018-12-01T11:31:57.073Z,95705.02
2018-12-01T11:34:26.957Z,95704.89
2018-12-01T11:36:56.812Z,95704.42
2018-12-01T11:39:26.503Z,95700.28
2018-12-01T11:41:56.254Z,95703.97
2018-12-01T11:44:26.261Z,95702.27
2018-12-01T11:46:56.120Z,95709.09
2018-12-01T11:49:26.032Z,95704.12
2018-12-01T11:51:55.884Z,95699.91
2018-12-01T11:54:25.683Z,95704.50
2018-12-01T11:56:55.569Z,95699.03
2018-12-01T11:59:25.561Z,95704.68
2018-12-01T12:02:00.266Z,95699.06
2018-12-01T12:04:25.645Z,95714.31
2018-12-01T12:06:55.555Z,95697.67
2018-12-01T12:09:25.522Z,95696.83
2018-12-01T12:11:55.596Z,95695.66
2018-12-01T12:14:25.583Z,95692.63
2018-12-01T12:16:55.717Z,95694.36
2018-12-01T12:19:25.591Z,95686.56
2018-12-01T12:21:55.563Z,95694.09
2018-12-01T12:24:25.393Z,95693.02
2018-12-01T12:26:55.272Z,95693.02
2018-12-01T12:29:25.203Z,95727.99
2018-12-01T12:31:55.318Z,95684.39
2018-12-01T12:34:25.273Z,95680.45
2018-12-01T12:36:55.141Z,95680.17
2018-12-01T12:39:25.015Z,95674.52
2018-12-01T12:41:54.933Z,95681.84
2018-12-01T12:44:24.884Z,95691.00
2018-12-01T12:46:54.863Z,95697.97
2018-12-01T12:49:24.669Z,95700.03
2018-12-01T12:51:54.490Z,95705.53
2018-12-01T12:54:24.384Z,95702.70
2018-12-01T12:56:54.233Z,95706.48
2018-12-01T12:59:24.177Z,95704.72
2018-12-01T13:01:54.081Z,95704.67
2018-12-01T13:04:24.113Z,95709.67
2018-12-01T13:06:54.036Z,95715.27
2018-12-01T13:09:23.963Z,95710.42
2018-12-01T13:11:53.913Z,95720.16
2018-12-01T13:14:24.196Z,95711.01
2018-12-01T13:16:54.552Z,95717.37
2018-12-01T13:19:24.417Z,95715.45
2018-12-01T13:21:54.210Z,95716.11
2018-12-01T13:24:24.224Z,95706.70
2018-12-01T13:26:54.117Z,95703.64
2018-12-01T13:29:23.965Z,95708.73
2018-12-01T13:31:54.970Z,95710.89
2018-12-01T13:34:24.876Z,95708.45
2018-12-01T13:36:55.205Z,95705.58
2018-12-01T13:39:25.045Z,95702.25
2018-12-01T13:41:54.864Z,95704.48
2018-12-01T13:44:24.745Z,95713.70
2018-12-01T13:46:54.353Z,95710.79
2018-12-01T13:49:24.141Z,95710.97
2018-12-01T13:51:54.110Z,95705.81
2018-12-01T13:54:23.759Z,95706.98
2018-12-01T13:56:53.676Z,95716.83
2018-12-01T13:59:23.606Z,95713.53
2018-12-01T14:01:53.317Z,95713.94
2018-12-01T14:04:23.111Z,95723.38
2018-12-01T14:06:52.955Z,95719.59
2018-12-01T14:09:22.834Z,95719.53
2018-12-01T14:11:53.157Z,95715.89
2018-12-01T14:14:22.998Z,95714.45
2018-12-01T14:16:52.801Z,95707.59
2018-12-01T14:19:22.773Z,95718.12
2018-12-01T14:21:52.573Z,95728.17
2018-12-01T14:24:22.422Z,95727.45
2018-12-01T14:26:52.368Z,95736.11
2018-12-01T14:29:22.203Z,95738.09
2018-12-01T14:31:52.094Z,95734.01
2018-12-01T14:34:21.923Z,95742.83
2018-12-01T14:36:51.794Z,95681.80
2018-12-01T14:39:21.740Z,95737.73
2018-12-01T14:41:51.525Z,95740.59
2018-12-01T14:44:21.335Z,95742.45
2018-12-01T14:46:51.285Z,95741.42
2018-12-01T14:49:21.081Z,95743.66
2018-12-01T14:51:51.004Z,95736.40
2018-12-01T14:54:20.928Z,95741.88
2018-12-01T14:56:50.854Z,95738.47
2018-12-01T14:59:20.716Z,95738.38
2018-12-01T15:01:50.597Z,95746.72
2018-12-01T15:04:20.351Z,95747.73
2018-12-01T15:06:50.189Z,95745.16
2018-12-01T15:09:19.960Z,95747.19
2018-12-01T15:11:49.823Z,95744.83
2018-12-01T15:14:19.703Z,95751.02
2018-12-01T15:16:49.531Z,95750.37
2018-12-01T15:19:19.783Z,95757.58
2018-12-01T15:21:50.527Z,95762.17
2018-12-01T15:24:19.648Z,95760.56
2018-12-01T15:26:50.038Z,95760.81
2018-12-01T15:29:19.869Z,95767.91
2018-12-01T15:31:49.794Z,95766.69
2018-12-01T15:34:19.682Z,95769.70
2018-12-01T15:36:49.790Z,95767.85
2018-12-01T15:39:29.447Z,95772.16
2018-12-01T15:41:59.313Z,95774.38
2018-12-01T15:44:29.164Z,95777.62
2018-12-01T15:46:59.281Z,95787.64
2018-12-01T15:49:28.950Z,95795.78
2018-12-01T15:51:58.877Z,95792.73
2018-12-01T15:54:28.909Z,95797.71
2018-12-01T15:56:58.841Z,95794.84
2018-12-01T15:59:28.763Z,95790.00
2018-12-01T16:01:58.619Z,95798.50
2018-12-01T16:04:28.501Z,95796.33
2018-12-01T16:06:58.362Z,95795.34
2018-12-01T16:09:28.337Z,95800.98
2018-12-01T16:11:58.152Z,95800.33
2018-12-01T16:14:28.082Z,95806.94
2018-12-01T16:16:57.887Z,95803.30
2018-12-01T16:19:27.832Z,95795.72
2018-12-01T16:21:57.741Z,95798.73
2018-12-01T16:24:27.589Z,95795.10
2018-12-01T16:26:57.482Z,95806.75
2018-12-01T16:29:27.353Z,95809.62
2018-12-01T16:31:57.229Z,95832.66
2018-12-01T16:34:26.999Z,95813.15
2018-12-01T16:36:56.944Z,95812.94
2018-12-01T16:39:26.807Z,95813.84
2018-12-01T16:41:56.724Z,95819.58
2018-12-01T16:44:26.625Z,95816.76
2018-12-01T16:46:56.567Z,95809.62
2018-12-01T16:49:26.479Z,95831.37
2018-12-01T16:51:56.409Z,95811.36
2018-12-01T16:54:26.280Z,95815.09
2018-12-01T16:56:56.165Z,95816.25
2018-12-01T16:59:26.127Z,95823.13
2018-12-01T17:01:56.025Z,95815.72
2018-12-01T17:04:25.924Z,95814.48
2018-12-01T17:06:55.661Z,95812.09
2018-12-01T17:09:25.529Z,95816.70
2018-12-01T17:11:55.471Z,95824.76
2018-12-01T17:14:25.332Z,95820.47
2018-12-01T17:16:55.191Z,95823.28
2018-12-01T17:19:25.146Z,95822.20
2018-12-01T17:21:55.296Z,95823.81
2018-12-01T17:24:25.160Z,95822.90
2018-12-01T17:26:54.941Z,95826.73
2018-12-01T17:29:24.879Z,95833.91
2018-12-01T17:31:54.618Z,95826.78
2018-12-01T17:34:24.316Z,95830.02
2018-12-01T17:36:54.218Z,95828.70
2018-12-01T17:39:24.010Z,95830.13
2018-12-01T17:41:53.798Z,95826.38
2018-12-01T17:44:23.630Z,95829.34
2018-12-01T17:46:53.628Z,95832.71
2018-12-01T17:49:23.492Z,95834.22
2018-12-01T17:51:53.519Z,95831.66
2018-12-01T17:54:23.425Z,95835.95
2018-12-01T17:56:53.230Z,95829.34
2018-12-01T17:59:23.137Z,95831.03
2018-12-01T18:01:53.016Z,95830.59
2018-12-01T18:04:22.933Z,95833.86
2018-12-01T18:06:52.888Z,95840.23
2018-12-01T18:09:22.762Z,95835.48
2018-12-01T18:11:52.659Z,95845.57
2018-12-01T18:14:22.296Z,95838.05
2018-12-01T18:16:52.120Z,95833.02
2018-12-01T18:19:22.041Z,95835.66
2018-12-01T18:21:51.916Z,95838.34
2018-12-01T18:24:21.819Z,95844.62
2018-12-01T18:26:51.712Z,95840.27
2018-12-01T18:29:21.403Z,95849.70
2018-12-01T18:31:51.099Z,95842.50
2018-12-01T18:34:21.000Z,95843.55
2018-12-01T18:36:50.940Z,95846.62
2018-12-01T18:39:21.193Z,95852.95
2018-12-01T18:41:51.014Z,95856.80
2018-12-01T18:44:20.917Z,95851.17
2018-12-01T18:46:50.739Z,95854.67
2018-12-01T18:49:20.681Z,95858.20
2018-12-01T18:51:50.485Z,95858.45
2018-12-01T18:54:20.383Z,95862.43
2018-12-01T18:56:50.295Z,95854.25
2018-12-01T18:59:20.103Z,95857.88
2018-12-01T19:01:52.332Z,95860.16
2018-12-01T19:04:22.105Z,95861.48
2018-12-01T19:06:53.021Z,95617.71
2018-12-01T19:09:22.858Z,95872.91
2018-12-01T19:11:52.722Z,95622.85
2018-12-01T19:14:22.458Z,95878.91
2018-12-01T19:16:52.357Z,95874.70
2018-12-01T19:19:22.158Z,95869.20
2018-12-01T19:21:51.943Z,95871.89
2018-12-01T19:24:21.676Z,95869.53
2018-12-01T19:26:51.860Z,95875.81
2018-12-01T19:29:21.660Z,95873.97
2018-12-01T19:31:51.481Z,95873.41
2018-12-01T19:34:21.249Z,95874.59
2018-12-01T19:36:51.025Z,95870.34
2018-12-01T19:39:20.862Z,95874.45
2018-12-01T19:41:50.504Z,95874.90
2018-12-01T19:44:20.294Z,95877.67
2018-12-01T19:46:50.138Z,95869.59
2018-12-01T19:49:19.895Z,95876.55
2018-12-01T19:51:49.772Z,95875.91
2018-12-01T19:54:19.608Z,95870.15
2018-12-01T19:56:49.456Z,95867.25
2018-12-01T19:59:19.357Z,95872.68
2018-12-01T20:01:49.140Z,95870.89
2018-12-01T20:04:19.066Z,95867.80
2018-12-01T20:06:48.853Z,95866.78
2018-12-01T20:09:18.680Z,95870.86
2018-12-01T20:11:48.409Z,95867.66
2018-12-01T20:14:19.199Z,95869.98
2018-12-01T20:16:52.453Z,95866.06
2018-12-01T20:19:22.293Z,95868.80
2018-12-01T20:21:52.100Z,95873.02
2018-12-01T20:24:21.813Z,95873.83
2018-12-01T20:26:51.702Z,95869.91
2018-12-01T20:29:21.872Z,95866.01
2018-12-01T20:31:52.082Z,95868.70
2018-12-01T20:34:22.677Z,95873.58
2018-12-01T20:36:56.210Z,95877.75
2018-12-01T20:39:32.005Z,95883.16
2018-12-01T20:42:01.830Z,95882.85
2018-12-01T20:44:31.838Z,95884.77
2018-12-01T20:47:02.195Z,95894.88
2018-12-01T20:49:31.880Z,95897.81
2018-12-01T20:52:01.684Z,95895.50
2018-12-01T20:54:35.728Z,95899.47
2018-12-01T20:57:09.407Z,95904.52
2018-12-01T20:59:39.232Z,95903.87
2018-12-01T21:02:09.147Z,95899.20
2018-12-01T21:04:39.014Z,95902.92
2018-12-01T21:07:08.986Z,95901.23
2018-12-01T21:09:38.876Z,95894.23
2018-12-01T21:12:09.888Z,95894.77
2018-12-01T21:14:39.783Z,95893.45
2018-12-01T21:17:10.232Z,95888.19
2018-12-01T21:19:40.215Z,95887.44
2018-12-01T21:22:10.496Z,95881.16
2018-12-01T21:24:40.286Z,95881.02
2018-12-01T21:27:10.881Z,95878.53
2018-12-01T21:29:40.866Z,95877.61
2018-12-01T21:32:10.785Z,95868.92
2018-12-01T21:34:40.607Z,95868.69
2018-12-01T21:37:11.019Z,95869.34
2018-12-01T21:39:40.886Z,95871.53
2018-12-01T21:42:10.409Z,95868.25
2018-12-01T21:44:40.268Z,95875.24
2018-12-01T21:47:10.683Z,95871.23
2018-12-01T21:49:41.284Z,95876.86
2018-12-01T21:52:11.910Z,95882.58
2018-12-01T21:54:42.386Z,95878.05
2018-12-01T21:57:13.623Z,95877.45
2018-12-01T21:59:43.803Z,95874.45
2018-12-01T22:02:14.201Z,95882.56
2018-12-01T22:04:44.812Z,95889.29
2018-12-01T22:07:15.629Z,95894.66
2018-12-01T22:09:46.294Z,95887.57
2018-12-01T22:12:16.896Z,95890.28
2018-12-01T22:14:47.469Z,95889.56
2018-12-01T22:17:18.529Z,95891.83
2018-12-01T22:19:48.810Z,95899.85
2018-12-01T22:22:19.048Z,95900.80
2018-12-01T22:24:49.554Z,95897.62
2018-12-01T22:27:20.160Z,95899.94
2018-12-01T22:29:50.914Z,95902.09
2018-12-01T22:32:21.115Z,95897.02
2018-12-01T22:34:51.177Z,95897.66
2018-12-01T22:37:21.923Z,95896.52
2018-12-01T22:39:52.342Z,95894.97
2018-12-01T22:42:22.814Z,95891.05
2018-12-01T22:44:53.170Z,95893.09
2018-12-01T22:47:24.958Z,95888.16
2018-12-01T22:49:55.164Z,95889.20
2018-12-01T22:52:25.578Z,95885.47
2018-12-01T22:54:55.806Z,95887.92
2018-12-01T22:57:27.240Z,95891.75
2018-12-01T22:59:57.466Z,95893.76
2018-12-01T23:02:27.998Z,95885.67
2018-12-01T23:04:58.446Z,95879.17
2018-12-01T23:07:29.444Z,95881.64
2018-12-01T23:09:59.988Z,95874.23
2018-12-01T23:12:29.895Z,95877.17
2018-12-01T23:15:00.304Z,95884.77
2018-12-01T23:17:30.974Z,95876.02
2018-12-01T23:20:01.050Z,95880.59
2018-12-01T23:22:31.335Z,95882.45
2018-12-01T23:25:01.877Z,95882.65
2018-12-01T23:27:32.552Z,95890.90
2018-12-01T23:30:03.446Z,95882.26
2018-12-01T23:32:34.028Z,95880.69
2018-12-01T23:35:04.451Z,95876.97
2018-12-01T23:37:36.312Z,95880.03
2018-12-01T23:40:07.829Z,95878.87
2018-12-01T23:42:38.186Z,95877.89
2018-12-01T23:45:15.285Z,95879.13
2018-12-01T23:47:46.490Z,95878.05
2018-12-01T23:50:22.778Z,95881.67
2018-12-01T23:52:57.184Z,95883.48
2018-12-01T23:55:27.666Z,95884.38
2018-12-01T23:57:58.657Z,95881.78
